sensor_id;sensor_type;location;lat;lon;timestamp;P1;durP1;ratioP1;P2;durP2;ratioP2
78610;SDS011;67932;50.474;4.436;2023-05-10T00:01:49;12.77;;;5.50;;
78610;SDS011;67932;50.474;4.436;2023-05-10T00:04:15;9.63;;;4.43;;
78610;SDS011;67932;50.474;4.436;2023-05-10T00:06:41;15.65;;;5.22;;
78610;SDS011;67932;50.474;4.436;2023-05-10T00:09:08;14.25;;;5.20;;
78610;SDS011;67932;50.474;4.436;2023-05-10T00:11:34;9.45;;;5.18;;
78610;SDS011;67932;50.474;4.436;2023-05-10T00:14:00;12.20;;;5.78;;
78610;SDS011;67932;50.474;4.436;2023-05-10T00:16:27;12.90;;;4.53;;
78610;SDS011;67932;50.474;4.436;2023-05-10T00:18:53;12.50;;;4.97;;
78610;SDS011;67932;50.474;4.436;2023-05-10T00:21:19;12.30;;;4.90;;
78610;SDS011;67932;50.474;4.436;2023-05-10T00:23:46;11.32;;;4.93;;
78610;SDS011;67932;50.474;4.436;2023-05-10T00:26:12;13.98;;;5.05;;
78610;SDS011;67932;50.474;4.436;2023-05-10T00:28:39;13.30;;;5.63;;
78610;SDS011;67932;50.474;4.436;2023-05-10T00:31:05;13.60;;;5.32;;
78610;SDS011;67932;50.474;4.436;2023-05-10T00:33:32;16.15;;;5.47;;
78610;SDS011;67932;50.474;4.436;2023-05-10T00:35:58;13.80;;;4.95;;
78610;SDS011;67932;50.474;4.436;2023-05-10T00:38:25;13.27;;;5.38;;
78610;SDS011;67932;50.474;4.436;2023-05-10T00:40:51;13.80;;;5.70;;
78610;SDS011;67932;50.474;4.436;2023-05-10T00:43:19;10.15;;;4.95;;
78610;SDS011;67932;50.474;4.436;2023-05-10T00:45:45;14.10;;;5.55;;
78610;SDS011;67932;50.474;4.436;2023-05-10T00:48:11;13.63;;;5.75;;
78610;SDS011;67932;50.474;4.436;2023-05-10T00:50:38;10.48;;;5.00;;
78610;SDS011;67932;50.474;4.436;2023-05-10T00:53:05;11.63;;;5.30;;
78610;SDS011;67932;50.474;4.436;2023-05-10T00:55:31;14.95;;;5.32;;
78610;SDS011;67932;50.474;4.436;2023-05-10T00:57:57;13.15;;;5.47;;
78610;SDS011;67932;50.474;4.436;2023-05-10T01:00:24;14.73;;;4.90;;
78610;SDS011;67932;50.474;4.436;2023-05-10T01:02:50;13.38;;;5.18;;
78610;SDS011;67932;50.474;4.436;2023-05-10T01:05:18;14.10;;;5.70;;
78610;SDS011;67932;50.474;4.436;2023-05-10T01:07:44;20.27;;;5.93;;
78610;SDS011;67932;50.474;4.436;2023-05-10T01:10:11;13.05;;;5.68;;
78610;SDS011;67932;50.474;4.436;2023-05-10T01:12:38;11.30;;;5.47;;
78610;SDS011;67932;50.474;4.436;2023-05-10T01:15:09;9.70;;;5.22;;
78610;SDS011;67932;50.474;4.436;2023-05-10T01:17:37;10.25;;;5.07;;
78610;SDS011;67932;50.474;4.436;2023-05-10T01:20:05;13.35;;;5.95;;
78610;SDS011;67932;50.474;4.436;2023-05-10T01:33:52;13.93;;;6.10;;
78610;SDS011;67932;50.474;4.436;2023-05-10T01:36:31;12.77;;;7.38;;
78610;SDS011;67932;50.474;4.436;2023-05-10T01:44:35;14.88;;;7.18;;
78610;SDS011;67932;50.474;4.436;2023-05-10T01:49:52;18.42;;;7.80;;
78610;SDS011;67932;50.474;4.436;2023-05-10T01:52:22;20.27;;;8.52;;
78610;SDS011;67932;50.474;4.436;2023-05-10T01:54:55;17.38;;;7.55;;
78610;SDS011;67932;50.474;4.436;2023-05-10T01:57:34;20.10;;;8.55;;
78610;SDS011;67932;50.474;4.436;2023-05-10T02:00:02;20.23;;;8.65;;
78610;SDS011;67932;50.474;4.436;2023-05-10T02:02:30;20.35;;;8.73;;
78610;SDS011;67932;50.474;4.436;2023-05-10T02:05:00;17.23;;;8.50;;
78610;SDS011;67932;50.474;4.436;2023-05-10T02:07:28;20.77;;;9.50;;
78610;SDS011;67932;50.474;4.436;2023-05-10T02:09:55;19.25;;;8.30;;
78610;SDS011;67932;50.474;4.436;2023-05-10T02:12:23;22.13;;;8.63;;
78610;SDS011;67932;50.474;4.436;2023-05-10T02:14:50;19.48;;;8.55;;
78610;SDS011;67932;50.474;4.436;2023-05-10T02:17:18;19.52;;;9.20;;
78610;SDS011;67932;50.474;4.436;2023-05-10T02:19:46;20.65;;;8.75;;
78610;SDS011;67932;50.474;4.436;2023-05-10T02:22:13;20.67;;;8.48;;
78610;SDS011;67932;50.474;4.436;2023-05-10T02:24:42;22.38;;;9.55;;
78610;SDS011;67932;50.474;4.436;2023-05-10T02:27:09;20.67;;;9.05;;
78610;SDS011;67932;50.474;4.436;2023-05-10T02:29:37;18.05;;;9.10;;
78610;SDS011;67932;50.474;4.436;2023-05-10T02:32:04;21.50;;;8.95;;
78610;SDS011;67932;50.474;4.436;2023-05-10T02:34:32;23.35;;;9.95;;
78610;SDS011;67932;50.474;4.436;2023-05-10T02:36:58;23.98;;;9.82;;
78610;SDS011;67932;50.474;4.436;2023-05-10T02:39:26;21.73;;;8.52;;
78610;SDS011;67932;50.474;4.436;2023-05-10T02:41:54;17.90;;;9.57;;
78610;SDS011;67932;50.474;4.436;2023-05-10T02:44:21;22.85;;;9.43;;
78610;SDS011;67932;50.474;4.436;2023-05-10T02:46:48;18.38;;;8.25;;
78610;SDS011;67932;50.474;4.436;2023-05-10T02:49:15;19.50;;;8.48;;
78610;SDS011;67932;50.474;4.436;2023-05-10T02:51:44;19.60;;;7.97;;
78610;SDS011;67932;50.474;4.436;2023-05-10T02:54:24;19.17;;;8.35;;
78610;SDS011;67932;50.474;4.436;2023-05-10T02:56:57;18.50;;;7.90;;
78610;SDS011;67932;50.474;4.436;2023-05-10T02:59:25;19.05;;;7.65;;
78610;SDS011;67932;50.474;4.436;2023-05-10T03:01:52;20.20;;;8.30;;
78610;SDS011;67932;50.474;4.436;2023-05-10T03:04:18;22.08;;;8.40;;
78610;SDS011;67932;50.474;4.436;2023-05-10T03:06:44;19.85;;;8.93;;
78610;SDS011;67932;50.474;4.436;2023-05-10T03:09:11;19.42;;;8.05;;
78610;SDS011;67932;50.474;4.436;2023-05-10T03:11:55;17.92;;;7.50;;
78610;SDS011;67932;50.474;4.436;2023-05-10T03:17:43;17.63;;;6.90;;
78610;SDS011;67932;50.474;4.436;2023-05-10T03:20:31;18.15;;;7.00;;
78610;SDS011;67932;50.474;4.436;2023-05-10T03:25:52;14.32;;;6.10;;
78610;SDS011;67932;50.474;4.436;2023-05-10T03:28:20;12.27;;;5.97;;
78610;SDS011;67932;50.474;4.436;2023-05-10T03:30:49;11.80;;;5.97;;
78610;SDS011;67932;50.474;4.436;2023-05-10T03:33:18;14.00;;;5.43;;
78610;SDS011;67932;50.474;4.436;2023-05-10T03:35:45;12.75;;;5.40;;
78610;SDS011;67932;50.474;4.436;2023-05-10T03:38:14;12.85;;;5.97;;
78610;SDS011;67932;50.474;4.436;2023-05-10T03:40:40;10.95;;;5.32;;
78610;SDS011;67932;50.474;4.436;2023-05-10T03:43:07;13.38;;;5.07;;
78610;SDS011;67932;50.474;4.436;2023-05-10T03:45:33;13.60;;;5.63;;
78610;SDS011;67932;50.474;4.436;2023-05-10T03:48:00;15.07;;;5.95;;
78610;SDS011;67932;50.474;4.436;2023-05-10T03:50:27;13.13;;;5.75;;
78610;SDS011;67932;50.474;4.436;2023-05-10T03:52:53;16.80;;;5.55;;
78610;SDS011;67932;50.474;4.436;2023-05-10T03:55:19;13.27;;;5.22;;
78610;SDS011;67932;50.474;4.436;2023-05-10T03:57:45;15.55;;;5.80;;
78610;SDS011;67932;50.474;4.436;2023-05-10T04:00:14;14.85;;;5.00;;
78610;SDS011;67932;50.474;4.436;2023-05-10T04:02:41;13.13;;;5.43;;
78610;SDS011;67932;50.474;4.436;2023-05-10T04:05:07;10.95;;;4.93;;
78610;SDS011;67932;50.474;4.436;2023-05-10T04:07:33;14.80;;;5.07;;
78610;SDS011;67932;50.474;4.436;2023-05-10T04:10:00;10.82;;;4.28;;
78610;SDS011;67932;50.474;4.436;2023-05-10T04:12:26;14.48;;;4.95;;
78610;SDS011;67932;50.474;4.436;2023-05-10T04:14:52;12.35;;;4.13;;
78610;SDS011;67932;50.474;4.436;2023-05-10T04:17:18;14.15;;;4.88;;
78610;SDS011;67932;50.474;4.436;2023-05-10T04:19:45;11.63;;;4.53;;
78610;SDS011;67932;50.474;4.436;2023-05-10T04:22:11;9.75;;;4.65;;
78610;SDS011;67932;50.474;4.436;2023-05-10T04:24:37;13.65;;;4.15;;
78610;SDS011;67932;50.474;4.436;2023-05-10T04:27:03;17.08;;;4.63;;
78610;SDS011;67932;50.474;4.436;2023-05-10T04:29:30;8.70;;;3.67;;
78610;SDS011;67932;50.474;4.436;2023-05-10T04:31:56;15.02;;;3.75;;
78610;SDS011;67932;50.474;4.436;2023-05-10T04:34:22;9.85;;;3.63;;
78610;SDS011;67932;50.474;4.436;2023-05-10T04:36:48;8.45;;;3.00;;
78610;SDS011;67932;50.474;4.436;2023-05-10T04:39:15;6.22;;;2.40;;
78610;SDS011;67932;50.474;4.436;2023-05-10T04:41:41;11.27;;;2.58;;
78610;SDS011;67932;50.474;4.436;2023-05-10T04:44:07;8.98;;;2.60;;
78610;SDS011;67932;50.474;4.436;2023-05-10T04:46:33;7.63;;;2.53;;
78610;SDS011;67932;50.474;4.436;2023-05-10T04:49:00;7.70;;;2.53;;
78610;SDS011;67932;50.474;4.436;2023-05-10T04:51:26;4.97;;;2.22;;
78610;SDS011;67932;50.474;4.436;2023-05-10T04:53:52;6.13;;;2.50;;
78610;SDS011;67932;50.474;4.436;2023-05-10T04:56:19;14.25;;;4.65;;
78610;SDS011;67932;50.474;4.436;2023-05-10T04:58:45;7.72;;;3.30;;
78610;SDS011;67932;50.474;4.436;2023-05-10T05:01:11;12.13;;;3.08;;
78610;SDS011;67932;50.474;4.436;2023-05-10T05:03:37;8.65;;;2.88;;
78610;SDS011;67932;50.474;4.436;2023-05-10T05:06:04;6.53;;;2.67;;
78610;SDS011;67932;50.474;4.436;2023-05-10T05:08:30;8.00;;;2.60;;
78610;SDS011;67932;50.474;4.436;2023-05-10T05:10:56;10.02;;;3.67;;
78610;SDS011;67932;50.474;4.436;2023-05-10T05:13:22;5.82;;;3.35;;
78610;SDS011;67932;50.474;4.436;2023-05-10T05:15:49;7.88;;;3.70;;
78610;SDS011;67932;50.474;4.436;2023-05-10T05:18:15;5.97;;;3.10;;
78610;SDS011;67932;50.474;4.436;2023-05-10T05:20:41;5.93;;;2.50;;
78610;SDS011;67932;50.474;4.436;2023-05-10T05:23:07;9.25;;;2.95;;
78610;SDS011;67932;50.474;4.436;2023-05-10T05:25:34;7.57;;;3.00;;
78610;SDS011;67932;50.474;4.436;2023-05-10T05:28:00;6.35;;;2.50;;
78610;SDS011;67932;50.474;4.436;2023-05-10T05:30:27;7.50;;;2.70;;
78610;SDS011;67932;50.474;4.436;2023-05-10T05:32:53;5.20;;;2.80;;
78610;SDS011;67932;50.474;4.436;2023-05-10T05:35:19;5.78;;;2.40;;
78610;SDS011;67932;50.474;4.436;2023-05-10T05:37:45;5.00;;;3.10;;
78610;SDS011;67932;50.474;4.436;2023-05-10T05:40:12;4.60;;;2.08;;
78610;SDS011;67932;50.474;4.436;2023-05-10T05:42:39;6.55;;;2.15;;
78610;SDS011;67932;50.474;4.436;2023-05-10T05:45:05;3.05;;;1.80;;
78610;SDS011;67932;50.474;4.436;2023-05-10T05:47:33;11.40;;;2.55;;
78610;SDS011;67932;50.474;4.436;2023-05-10T05:49:59;5.32;;;2.22;;
78610;SDS011;67932;50.474;4.436;2023-05-10T05:52:26;3.13;;;1.75;;
78610;SDS011;67932;50.474;4.436;2023-05-10T05:54:52;5.68;;;1.60;;
78610;SDS011;67932;50.474;4.436;2023-05-10T05:57:18;4.25;;;1.90;;
78610;SDS011;67932;50.474;4.436;2023-05-10T05:59:44;6.13;;;1.90;;
78610;SDS011;67932;50.474;4.436;2023-05-10T06:02:11;6.78;;;1.60;;
78610;SDS011;67932;50.474;4.436;2023-05-10T06:04:38;4.50;;;1.70;;
78610;SDS011;67932;50.474;4.436;2023-05-10T06:07:04;4.18;;;1.63;;
78610;SDS011;67932;50.474;4.436;2023-05-10T06:09:30;3.55;;;2.10;;
78610;SDS011;67932;50.474;4.436;2023-05-10T06:11:57;4.80;;;1.98;;
78610;SDS011;67932;50.474;4.436;2023-05-10T06:14:23;3.47;;;2.10;;
78610;SDS011;67932;50.474;4.436;2023-05-10T06:16:50;7.55;;;1.88;;
78610;SDS011;67932;50.474;4.436;2023-05-10T06:19:16;3.42;;;1.80;;
78610;SDS011;67932;50.474;4.436;2023-05-10T06:21:42;3.97;;;2.22;;
78610;SDS011;67932;50.474;4.436;2023-05-10T06:24:08;2.80;;;1.63;;
78610;SDS011;67932;50.474;4.436;2023-05-10T06:26:35;4.35;;;2.00;;
78610;SDS011;67932;50.474;4.436;2023-05-10T06:29:01;6.38;;;1.88;;
78610;SDS011;67932;50.474;4.436;2023-05-10T06:31:27;3.63;;;1.83;;
78610;SDS011;67932;50.474;4.436;2023-05-10T06:33:53;5.38;;;1.83;;
78610;SDS011;67932;50.474;4.436;2023-05-10T06:36:20;4.07;;;1.73;;
78610;SDS011;67932;50.474;4.436;2023-05-10T06:38:46;3.17;;;1.70;;
78610;SDS011;67932;50.474;4.436;2023-05-10T06:41:13;4.07;;;1.95;;
78610;SDS011;67932;50.474;4.436;2023-05-10T06:43:39;2.83;;;1.90;;
78610;SDS011;67932;50.474;4.436;2023-05-10T06:46:06;3.83;;;1.77;;
78610;SDS011;67932;50.474;4.436;2023-05-10T06:48:32;4.90;;;1.88;;
78610;SDS011;67932;50.474;4.436;2023-05-10T06:50:59;4.35;;;2.30;;
78610;SDS011;67932;50.474;4.436;2023-05-10T06:53:25;3.97;;;2.05;;
78610;SDS011;67932;50.474;4.436;2023-05-10T06:55:51;3.17;;;2.13;;
78610;SDS011;67932;50.474;4.436;2023-05-10T06:58:17;9.25;;;1.90;;
78610;SDS011;67932;50.474;4.436;2023-05-10T07:00:44;5.05;;;1.90;;
78610;SDS011;67932;50.474;4.436;2023-05-10T07:03:11;4.65;;;2.20;;
78610;SDS011;67932;50.474;4.436;2023-05-10T07:05:37;4.90;;;2.08;;
78610;SDS011;67932;50.474;4.436;2023-05-10T07:08:04;4.30;;;1.98;;
78610;SDS011;67932;50.474;4.436;2023-05-10T07:10:30;4.55;;;2.38;;
78610;SDS011;67932;50.474;4.436;2023-05-10T07:12:56;4.93;;;2.03;;
78610;SDS011;67932;50.474;4.436;2023-05-10T07:15:23;3.40;;;1.98;;
78610;SDS011;67932;50.474;4.436;2023-05-10T07:17:50;4.22;;;2.72;;
78610;SDS011;67932;50.474;4.436;2023-05-10T07:20:17;5.25;;;2.78;;
78610;SDS011;67932;50.474;4.436;2023-05-10T07:22:43;4.53;;;2.35;;
78610;SDS011;67932;50.474;4.436;2023-05-10T07:25:09;3.40;;;2.10;;
78610;SDS011;67932;50.474;4.436;2023-05-10T07:27:36;5.35;;;2.58;;
78610;SDS011;67932;50.474;4.436;2023-05-10T07:30:02;5.05;;;2.30;;
78610;SDS011;67932;50.474;4.436;2023-05-10T07:32:28;3.08;;;1.98;;
78610;SDS011;67932;50.474;4.436;2023-05-10T07:34:55;3.30;;;2.38;;
78610;SDS011;67932;50.474;4.436;2023-05-10T07:37:21;4.43;;;2.15;;
78610;SDS011;67932;50.474;4.436;2023-05-10T07:39:47;3.53;;;2.22;;
78610;SDS011;67932;50.474;4.436;2023-05-10T07:42:14;3.30;;;1.92;;
78610;SDS011;67932;50.474;4.436;2023-05-10T07:44:40;4.45;;;2.00;;
78610;SDS011;67932;50.474;4.436;2023-05-10T07:47:06;3.58;;;1.98;;
78610;SDS011;67932;50.474;4.436;2023-05-10T07:49:33;2.50;;;1.80;;
78610;SDS011;67932;50.474;4.436;2023-05-10T07:51:59;4.07;;;2.42;;
78610;SDS011;67932;50.474;4.436;2023-05-10T07:54:25;3.90;;;2.40;;
78610;SDS011;67932;50.474;4.436;2023-05-10T07:56:51;4.05;;;2.00;;
78610;SDS011;67932;50.474;4.436;2023-05-10T07:59:18;2.90;;;1.83;;
78610;SDS011;67932;50.474;4.436;2023-05-10T08:01:44;4.38;;;2.10;;
78610;SDS011;67932;50.474;4.436;2023-05-10T08:04:11;4.03;;;1.70;;
78610;SDS011;67932;50.474;4.436;2023-05-10T08:06:37;4.65;;;2.03;;
78610;SDS011;67932;50.474;4.436;2023-05-10T08:09:04;3.63;;;2.03;;
78610;SDS011;67932;50.474;4.436;2023-05-10T08:11:30;2.97;;;1.80;;
78610;SDS011;67932;50.474;4.436;2023-05-10T08:13:56;4.22;;;1.73;;
78610;SDS011;67932;50.474;4.436;2023-05-10T08:16:23;4.07;;;1.80;;
78610;SDS011;67932;50.474;4.436;2023-05-10T08:18:50;2.67;;;1.95;;
78610;SDS011;67932;50.474;4.436;2023-05-10T08:21:16;3.05;;;2.20;;
78610;SDS011;67932;50.474;4.436;2023-05-10T08:23:43;3.53;;;1.92;;
78610;SDS011;67932;50.474;4.436;2023-05-10T08:26:09;3.83;;;1.77;;
78610;SDS011;67932;50.474;4.436;2023-05-10T08:28:35;3.35;;;2.00;;
78610;SDS011;67932;50.474;4.436;2023-05-10T08:31:02;3.67;;;1.80;;
78610;SDS011;67932;50.474;4.436;2023-05-10T08:33:28;4.97;;;2.17;;
78610;SDS011;67932;50.474;4.436;2023-05-10T08:35:55;3.25;;;1.63;;
78610;SDS011;67932;50.474;4.436;2023-05-10T08:38:21;3.53;;;2.20;;
78610;SDS011;67932;50.474;4.436;2023-05-10T08:40:47;4.20;;;2.20;;
78610;SDS011;67932;50.474;4.436;2023-05-10T08:43:15;3.65;;;1.90;;
78610;SDS011;67932;50.474;4.436;2023-05-10T08:45:43;2.65;;;2.13;;
78610;SDS011;67932;50.474;4.436;2023-05-10T08:48:11;3.47;;;1.75;;
78610;SDS011;67932;50.474;4.436;2023-05-10T08:50:39;2.85;;;1.55;;
78610;SDS011;67932;50.474;4.436;2023-05-10T08:53:09;2.53;;;1.20;;
78610;SDS011;67932;50.474;4.436;2023-05-10T08:58:05;1.48;;;1.00;;
78610;SDS011;67932;50.474;4.436;2023-05-10T09:00:32;2.75;;;1.20;;
78610;SDS011;67932;50.474;4.436;2023-05-10T09:02:58;2.25;;;1.65;;
78610;SDS011;67932;50.474;4.436;2023-05-10T09:05:25;3.15;;;1.70;;
78610;SDS011;67932;50.474;4.436;2023-05-10T09:07:52;2.75;;;1.40;;
78610;SDS011;67932;50.474;4.436;2023-05-10T09:10:19;2.70;;;1.60;;
78610;SDS011;67932;50.474;4.436;2023-05-10T09:12:46;1.77;;;1.00;;
78610;SDS011;67932;50.474;4.436;2023-05-10T09:15:17;2.03;;;1.23;;
78610;SDS011;67932;50.474;4.436;2023-05-10T09:17:45;2.47;;;1.70;;
78610;SDS011;67932;50.474;4.436;2023-05-10T09:20:12;2.55;;;1.00;;
78610;SDS011;67932;50.474;4.436;2023-05-10T09:22:38;1.77;;;1.10;;
78610;SDS011;67932;50.474;4.436;2023-05-10T09:25:09;3.20;;;1.25;;
78610;SDS011;67932;50.474;4.436;2023-05-10T09:27:37;1.20;;;1.10;;
78610;SDS011;67932;50.474;4.436;2023-05-10T09:30:05;0.90;;;0.80;;
78610;SDS011;67932;50.474;4.436;2023-05-10T09:35:06;1.58;;;0.90;;
78610;SDS011;67932;50.474;4.436;2023-05-10T09:37:36;2.08;;;1.00;;
78610;SDS011;67932;50.474;4.436;2023-05-10T09:40:07;2.15;;;1.02;;
78610;SDS011;67932;50.474;4.436;2023-05-10T09:42:38;0.80;;;0.80;;
78610;SDS011;67932;50.474;4.436;2023-05-10T09:45:05;2.67;;;1.40;;
78610;SDS011;67932;50.474;4.436;2023-05-10T09:47:33;2.47;;;1.73;;
78610;SDS011;67932;50.474;4.436;2023-05-10T09:50:00;1.98;;;1.70;;
78610;SDS011;67932;50.474;4.436;2023-05-10T09:52:30;2.17;;;1.38;;
78610;SDS011;67932;50.474;4.436;2023-05-10T09:55:11;2.25;;;1.00;;
78610;SDS011;67932;50.474;4.436;2023-05-10T09:57:37;1.45;;;1.15;;
78610;SDS011;67932;50.474;4.436;2023-05-10T10:00:04;8.32;;;4.05;;
78610;SDS011;67932;50.474;4.436;2023-05-10T10:02:31;1.27;;;1.10;;
78610;SDS011;67932;50.474;4.436;2023-05-10T10:04:57;1.88;;;1.00;;
78610;SDS011;67932;50.474;4.436;2023-05-10T10:07:30;2.58;;;1.30;;
78610;SDS011;67932;50.474;4.436;2023-05-10T10:09:58;2.05;;;1.30;;
78610;SDS011;67932;50.474;4.436;2023-05-10T10:12:25;4.32;;;1.48;;
78610;SDS011;67932;50.474;4.436;2023-05-10T10:14:51;2.80;;;1.30;;
78610;SDS011;67932;50.474;4.436;2023-05-10T10:17:18;1.95;;;1.40;;
78610;SDS011;67932;50.474;4.436;2023-05-10T10:19:46;2.08;;;1.35;;
78610;SDS011;67932;50.474;4.436;2023-05-10T10:22:14;2.20;;;1.40;;
78610;SDS011;67932;50.474;4.436;2023-05-10T10:24:41;3.60;;;1.50;;
78610;SDS011;67932;50.474;4.436;2023-05-10T10:27:13;1.67;;;1.27;;
78610;SDS011;67932;50.474;4.436;2023-05-10T10:30:10;1.50;;;1.38;;
78610;SDS011;67932;50.474;4.436;2023-05-10T10:35:41;2.15;;;1.15;;
78610;SDS011;67932;50.474;4.436;2023-05-10T10:38:11;3.15;;;1.48;;
78610;SDS011;67932;50.474;4.436;2023-05-10T10:40:38;4.70;;;1.48;;
78610;SDS011;67932;50.474;4.436;2023-05-10T10:51:37;2.40;;;1.50;;
78610;SDS011;67932;50.474;4.436;2023-05-10T10:54:10;2.67;;;1.30;;
78610;SDS011;67932;50.474;4.436;2023-05-10T10:56:37;1.77;;;1.30;;
78610;SDS011;67932;50.474;4.436;2023-05-10T10:59:04;3.00;;;1.23;;
78610;SDS011;67932;50.474;4.436;2023-05-10T11:01:34;1.60;;;1.00;;
78610;SDS011;67932;50.474;4.436;2023-05-10T11:09:09;3.00;;;1.52;;
78610;SDS011;67932;50.474;4.436;2023-05-10T11:11:47;2.67;;;1.52;;
78610;SDS011;67932;50.474;4.436;2023-05-10T11:14:19;3.63;;;1.30;;
78610;SDS011;67932;50.474;4.436;2023-05-10T11:16:47;2.00;;;1.08;;
78610;SDS011;67932;50.474;4.436;2023-05-10T11:19:14;3.45;;;1.27;;
78610;SDS011;67932;50.474;4.436;2023-05-10T11:21:52;2.85;;;1.63;;
78610;SDS011;67932;50.474;4.436;2023-05-10T11:24:28;2.33;;;1.90;;
78610;SDS011;67932;50.474;4.436;2023-05-10T11:26:54;2.10;;;1.48;;
78610;SDS011;67932;50.474;4.436;2023-05-10T11:29:21;2.47;;;1.73;;
78610;SDS011;67932;50.474;4.436;2023-05-10T11:31:48;4.25;;;1.77;;
78610;SDS011;67932;50.474;4.436;2023-05-10T11:34:25;1.90;;;1.65;;
78610;SDS011;67932;50.474;4.436;2023-05-10T11:36:54;4.88;;;1.80;;
78610;SDS011;67932;50.474;4.436;2023-05-10T11:39:21;2.90;;;2.08;;
78610;SDS011;67932;50.474;4.436;2023-05-10T11:41:55;5.75;;;2.75;;
78610;SDS011;67932;50.474;4.436;2023-05-10T11:44:22;2.22;;;1.80;;
78610;SDS011;67932;50.474;4.436;2023-05-10T11:46:48;4.13;;;1.70;;
78610;SDS011;67932;50.474;4.436;2023-05-10T11:49:15;3.05;;;1.95;;
78610;SDS011;67932;50.474;4.436;2023-05-10T11:51:41;2.65;;;1.60;;
78610;SDS011;67932;50.474;4.436;2023-05-10T11:54:09;2.67;;;1.50;;
78610;SDS011;67932;50.474;4.436;2023-05-10T11:56:39;1.52;;;1.10;;
78610;SDS011;67932;50.474;4.436;2023-05-10T11:59:06;1.65;;;1.13;;
78610;SDS011;67932;50.474;4.436;2023-05-10T12:01:33;1.92;;;1.10;;
78610;SDS011;67932;50.474;4.436;2023-05-10T12:04:00;2.08;;;1.42;;
78610;SDS011;67932;50.474;4.436;2023-05-10T12:06:27;1.80;;;0.98;;
78610;SDS011;67932;50.474;4.436;2023-05-10T12:08:55;2.13;;;0.75;;
78610;SDS011;67932;50.474;4.436;2023-05-10T12:11:26;1.10;;;0.98;;
78610;SDS011;67932;50.474;4.436;2023-05-10T12:13:54;1.50;;;1.00;;
78610;SDS011;67932;50.474;4.436;2023-05-10T12:16:22;1.40;;;0.70;;
78610;SDS011;67932;50.474;4.436;2023-05-10T12:18:50;2.20;;;0.90;;
78610;SDS011;67932;50.474;4.436;2023-05-10T12:21:18;2.03;;;0.93;;
78610;SDS011;67932;50.474;4.436;2023-05-10T12:23:45;1.55;;;1.38;;
78610;SDS011;67932;50.474;4.436;2023-05-10T12:26:13;1.70;;;0.77;;
78610;SDS011;67932;50.474;4.436;2023-05-10T12:28:40;3.97;;;1.23;;
78610;SDS011;67932;50.474;4.436;2023-05-10T12:31:06;1.25;;;0.75;;
78610;SDS011;67932;50.474;4.436;2023-05-10T12:33:42;0.85;;;0.80;;
78610;SDS011;67932;50.474;4.436;2023-05-10T12:36:10;2.00;;;1.30;;
78610;SDS011;67932;50.474;4.436;2023-05-10T12:41:27;1.98;;;1.02;;
78610;SDS011;67932;50.474;4.436;2023-05-10T12:43:55;5.45;;;4.60;;
78610;SDS011;67932;50.474;4.436;2023-05-10T12:46:21;1.63;;;1.00;;
78610;SDS011;67932;50.474;4.436;2023-05-10T12:48:50;1.10;;;0.88;;
78610;SDS011;67932;50.474;4.436;2023-05-10T12:51:19;1.70;;;1.00;;
78610;SDS011;67932;50.474;4.436;2023-05-10T12:53:47;0.70;;;0.70;;
78610;SDS011;67932;50.474;4.436;2023-05-10T12:56:13;1.77;;;0.82;;
78610;SDS011;67932;50.474;4.436;2023-05-10T12:58:40;1.98;;;1.23;;
78610;SDS011;67932;50.474;4.436;2023-05-10T13:01:06;4.53;;;1.33;;
78610;SDS011;67932;50.474;4.436;2023-05-10T13:03:33;1.23;;;0.95;;
78610;SDS011;67932;50.474;4.436;2023-05-10T13:05:59;1.08;;;0.63;;
78610;SDS011;67932;50.474;4.436;2023-05-10T13:08:25;1.58;;;0.73;;
78610;SDS011;67932;50.474;4.436;2023-05-10T13:10:52;1.80;;;1.00;;
78610;SDS011;67932;50.474;4.436;2023-05-10T13:13:18;1.67;;;1.23;;
78610;SDS011;67932;50.474;4.436;2023-05-10T13:15:45;1.80;;;1.02;;
78610;SDS011;67932;50.474;4.436;2023-05-10T13:18:11;1.35;;;0.65;;
78610;SDS011;67932;50.474;4.436;2023-05-10T13:20:37;2.33;;;1.00;;
78610;SDS011;67932;50.474;4.436;2023-05-10T13:23:04;1.80;;;1.00;;
78610;SDS011;67932;50.474;4.436;2023-05-10T13:25:30;2.03;;;1.30;;
78610;SDS011;67932;50.474;4.436;2023-05-10T13:27:56;1.58;;;0.95;;
78610;SDS011;67932;50.474;4.436;2023-05-10T13:30:23;2.05;;;0.90;;
78610;SDS011;67932;50.474;4.436;2023-05-10T13:32:49;1.08;;;0.95;;
78610;SDS011;67932;50.474;4.436;2023-05-10T13:35:15;1.00;;;0.82;;
78610;SDS011;67932;50.474;4.436;2023-05-10T13:37:42;1.13;;;0.98;;
78610;SDS011;67932;50.474;4.436;2023-05-10T13:40:08;1.85;;;1.15;;
78610;SDS011;67932;50.474;4.436;2023-05-10T13:42:35;1.08;;;0.80;;
78610;SDS011;67932;50.474;4.436;2023-05-10T13:45:01;1.92;;;1.00;;
78610;SDS011;67932;50.474;4.436;2023-05-10T13:47:27;2.67;;;1.77;;
78610;SDS011;67932;50.474;4.436;2023-05-10T13:49:54;1.25;;;0.95;;
78610;SDS011;67932;50.474;4.436;2023-05-10T13:52:21;1.45;;;0.88;;
78610;SDS011;67932;50.474;4.436;2023-05-10T13:54:47;0.98;;;0.82;;
78610;SDS011;67932;50.474;4.436;2023-05-10T13:57:13;0.60;;;0.52;;
78610;SDS011;67932;50.474;4.436;2023-05-10T13:59:41;1.00;;;0.70;;
78610;SDS011;67932;50.474;4.436;2023-05-10T14:02:07;1.17;;;0.70;;
78610;SDS011;67932;50.474;4.436;2023-05-10T14:04:34;2.67;;;0.98;;
78610;SDS011;67932;50.474;4.436;2023-05-10T14:07:00;1.30;;;0.80;;
78610;SDS011;67932;50.474;4.436;2023-05-10T14:09:26;1.20;;;0.70;;
78610;SDS011;67932;50.474;4.436;2023-05-10T14:11:53;1.98;;;0.80;;
78610;SDS011;67932;50.474;4.436;2023-05-10T14:14:21;1.10;;;0.60;;
78610;SDS011;67932;50.474;4.436;2023-05-10T14:16:47;0.98;;;0.65;;
78610;SDS011;67932;50.474;4.436;2023-05-10T14:19:14;2.03;;;0.75;;
78610;SDS011;67932;50.474;4.436;2023-05-10T14:21:40;2.17;;;1.20;;
78610;SDS011;67932;50.474;4.436;2023-05-10T14:24:06;1.17;;;0.80;;
78610;SDS011;67932;50.474;4.436;2023-05-10T14:26:32;1.25;;;0.68;;
78610;SDS011;67932;50.474;4.436;2023-05-10T14:28:59;1.75;;;1.00;;
78610;SDS011;67932;50.474;4.436;2023-05-10T14:31:25;1.75;;;1.00;;
78610;SDS011;67932;50.474;4.436;2023-05-10T14:33:52;1.10;;;0.90;;
78610;SDS011;67932;50.474;4.436;2023-05-10T14:36:18;1.13;;;0.80;;
78610;SDS011;67932;50.474;4.436;2023-05-10T14:38:45;2.03;;;1.08;;
78610;SDS011;67932;50.474;4.436;2023-05-10T14:41:12;1.27;;;0.93;;
78610;SDS011;67932;50.474;4.436;2023-05-10T14:43:40;2.22;;;1.25;;
78610;SDS011;67932;50.474;4.436;2023-05-10T14:46:06;1.95;;;1.00;;
78610;SDS011;67932;50.474;4.436;2023-05-10T14:48:33;1.70;;;1.10;;
78610;SDS011;67932;50.474;4.436;2023-05-10T14:51:00;2.08;;;1.30;;
78610;SDS011;67932;50.474;4.436;2023-05-10T14:53:27;2.20;;;1.35;;
78610;SDS011;67932;50.474;4.436;2023-05-10T14:55:53;5.75;;;1.90;;
78610;SDS011;67932;50.474;4.436;2023-05-10T14:58:19;2.65;;;1.60;;
78610;SDS011;67932;50.474;4.436;2023-05-10T15:00:46;5.07;;;1.80;;
78610;SDS011;67932;50.474;4.436;2023-05-10T15:03:12;2.67;;;1.45;;
78610;SDS011;67932;50.474;4.436;2023-05-10T15:05:38;2.72;;;1.63;;
78610;SDS011;67932;50.474;4.436;2023-05-10T15:08:05;2.33;;;1.42;;
78610;SDS011;67932;50.474;4.436;2023-05-10T15:10:31;7.28;;;2.33;;
78610;SDS011;67932;50.474;4.436;2023-05-10T15:12:58;4.10;;;2.50;;
78610;SDS011;67932;50.474;4.436;2023-05-10T15:15:24;4.70;;;2.90;;
78610;SDS011;67932;50.474;4.436;2023-05-10T15:17:51;4.22;;;2.50;;
78610;SDS011;67932;50.474;4.436;2023-05-10T15:20:17;5.93;;;2.88;;
78610;SDS011;67932;50.474;4.436;2023-05-10T15:22:43;5.32;;;3.10;;
78610;SDS011;67932;50.474;4.436;2023-05-10T15:25:09;5.03;;;3.75;;
78610;SDS011;67932;50.474;4.436;2023-05-10T15:27:36;5.88;;;3.60;;
78610;SDS011;67932;50.474;4.436;2023-05-10T15:30:02;6.15;;;3.45;;
78610;SDS011;67932;50.474;4.436;2023-05-10T15:32:29;10.25;;;4.90;;
78610;SDS011;67932;50.474;4.436;2023-05-10T15:34:55;8.85;;;5.00;;